Terminal Aerodrome Forecast
Issued by NWS Quad Cities IA IL

Home | Current Version | Previous Version | Text Only | Print | Product List | Glossary On
Versions: 1 2 3 4 5 6 7 8 9 10 11 12 13 14 15 16 17 18 19 20 21 22 23 24 25 26 27 28 29 30 31 32 33 34 35 36 37 38 39 40 41
000
FTUS43 KDVN 292014 AAA
TAFDBQ
TAF AMD
KDBQ 292014Z 2920/3018 02005KT P6SM OVC022
     FM300400 VRB03KT 4SM BR OVC012
     FM300800 VRB03KT 1SM BR OVC005
      TEMPO 3009/3013 1/4SM FG VV001
     FM301500 10004KT 3SM BR BKN008
     FM301700 16004KT P6SM SCT008 BKN020=

USA.gov is the U.S. government's official web portal to all federal, state and local government web resources and services.